Aquilla, Alabama
Current Conditions -  °F | °C
As of 1:58 AM on Friday 21 Nov 2014 (Local Time) from KMEI Reporting Station
Clear Clear  
Wind Chill: 32°   Ceiling: Unl
Heat Index: 37°   Visibility: 9mi
Dew Point: 36°   Wind: 7mph
Humidity: 96%   Direction: 190°S
Pressure: 30.25"   Gusts: NA
Location:  31.6272°N, 88.354°W
Report Text: KMEI 210758Z AUTO 19006KT 9SM CLR 03/02 A3025 RMK AO2 SLP244 T00280022
Loading
Personal Weather Stations






























Interactive Weather Map New forecast layout! Learn more

10-Day Weather Forecast

Advertisements
Track Severe Weather on mobile